Time;durP1;ratioP1;P1;durP2;ratioP2;P2;SDS_P1;SDS_P2;PMS_P1;PMS_P2;Temp;Humidity;BMP_temperature;BMP_pressure;BME280_temperature;BME280_humidity;BME280_pressure;Samples;Min_cycle;Max_cycle;Signal;HPM_P1;HPM_P2
2023/09/19 00:02:12;;;;;;;5.72;1.75;;;;;;;;;;4990864;28;21456;-71
2023/09/19 00:04:39;;;;;;;5.30;1.63;;;;;;;;;;4992172;28;20188;-71
2023/09/19 00:07:04;;;;;;;7.45;2.00;;;;;;;;;;4990622;28;20289;-71
2023/09/19 00:09:30;;;;;;;4.07;1.67;;;;;;;;;;4991875;28;20211;-71
2023/09/19 00:11:55;;;;;;;6.13;1.63;;;;;;;;;;4990375;28;20190;-70
2023/09/19 00:14:24;;;;;;;9.88;2.38;;;;;;;;;;4992532;28;20199;-70
2023/09/19 00:16:49;;;;;;;4.43;1.77;;;;;;;;;;4990663;28;20191;-71
2023/09/19 00:19:16;;;;;;;5.32;1.73;;;;;;;;;;4978533;28;20299;-70
2023/09/19 00:21:41;;;;;;;3.95;1.77;;;;;;;;;;4987912;28;20606;-71
2023/09/19 00:24:08;;;;;;;3.65;1.65;;;;;;;;;;4991486;28;20243;-71
2023/09/19 00:26:34;;;;;;;6.50;2.13;;;;;;;;;;4992252;28;20211;-71
2023/09/19 00:29:08;;;;;;;4.60;1.88;;;;;;;;;;4989439;28;20216;-71
2023/09/19 00:31:33;;;;;;;4.05;1.80;;;;;;;;;;4985213;28;20273;-71
2023/09/19 00:33:59;;;;;;;4.40;1.80;;;;;;;;;;4990969;28;20219;-71
2023/09/19 00:36:25;;;;;;;5.25;1.75;;;;;;;;;;4991419;28;20199;-70
2023/09/19 00:38:50;;;;;;;7.25;2.22;;;;;;;;;;4992300;28;20183;-70
2023/09/19 00:41:15;;;;;;;10.50;2.08;;;;;;;;;;4991668;28;20643;-70
2023/09/19 00:43:40;;;;;;;10.23;1.80;;;;;;;;;;4987444;28;20652;-69
2023/09/19 00:46:06;;;;;;;6.13;2.20;;;;;;;;;;4984308;28;20262;-70
2023/09/19 00:48:31;;;;;;;6.28;1.95;;;;;;;;;;4990709;28;20207;-70
2023/09/19 00:51:02;;;;;;;6.35;1.70;;;;;;;;;;4992347;28;20219;-69
2023/09/19 00:53:28;;;;;;;8.63;2.33;;;;;;;;;;4993604;28;20211;-70
2023/09/19 00:55:53;;;;;;;5.45;1.33;;;;;;;;;;4994486;28;20725;-70
2023/09/19 00:58:19;;;;;;;3.80;1.25;;;;;;;;;;4996317;28;20283;-70
2023/09/19 01:00:44;;;;;;;5.57;1.67;;;;;;;;;;4995186;28;20211;-71
2023/09/19 01:03:10;;;;;;;3.10;1.55;;;;;;;;;;4985884;28;20182;-69
2023/09/19 01:05:35;;;;;;;3.85;1.83;;;;;;;;;;4994142;28;20175;-69
2023/09/19 01:08:01;;;;;;;6.43;1.67;;;;;;;;;;4992591;28;20761;-70
2023/09/19 01:10:26;;;;;;;5.78;1.58;;;;;;;;;;4995348;28;20176;-70
2023/09/19 01:12:57;;;;;;;4.97;1.73;;;;;;;;;;4994080;28;20238;-70
2023/09/19 01:15:44;;;;;;;6.60;1.63;;;;;;;;;;4984232;28;20733;-69
2023/09/19 01:18:16;;;;;;;6.07;1.73;;;;;;;;;;4994349;28;20265;-69
2023/09/19 01:20:44;;;;;;;5.30;1.38;;;;;;;;;;4997410;28;20175;-70
2023/09/19 01:23:28;;;;;;;7.55;1.50;;;;;;;;;;4994186;28;20184;-70
2023/09/19 01:26:02;;;;;;;3.03;1.60;;;;;;;;;;4991186;28;20603;-70
2023/09/19 01:28:53;;;;;;;13.40;2.50;;;;;;;;;;4991622;28;20239;-70
2023/09/19 01:31:19;;;;;;;2.00;1.50;;;;;;;;;;4989362;28;20647;-69
2023/09/19 01:34:02;;;;;;;2.67;1.48;;;;;;;;;;4994110;28;20187;-69
2023/09/19 01:36:29;;;;;;;7.75;1.58;;;;;;;;;;5006006;28;20261;-69
2023/09/19 01:38:55;;;;;;;4.63;1.52;;;;;;;;;;4994253;28;20179;-69
2023/09/19 01:41:25;;;;;;;4.00;1.27;;;;;;;;;;4994238;28;20237;-69
2023/09/19 01:43:50;;;;;;;3.20;1.38;;;;;;;;;;4992426;28;20187;-69
2023/09/19 01:46:25;;;;;;;3.20;1.67;;;;;;;;;;4982316;28;20581;-69
2023/09/19 01:49:02;;;;;;;5.97;1.48;;;;;;;;;;4993118;28;20637;-69
2023/09/19 01:51:37;;;;;;;6.68;1.50;;;;;;;;;;4992651;28;20175;-69
2023/09/19 01:54:04;;;;;;;8.35;1.83;;;;;;;;;;4992205;28;20688;-69
2023/09/19 01:56:35;;;;;;;5.85;2.03;;;;;;;;;;4995135;28;20609;-69
2023/09/19 01:59:03;;;;;;;5.22;1.42;;;;;;;;;;4994921;28;20215;-69
2023/09/19 02:01:29;;;;;;;5.97;1.70;;;;;;;;;;4994233;28;20207;-70
2023/09/19 02:03:56;;;;;;;4.50;1.42;;;;;;;;;;4993301;28;20187;-70
2023/09/19 02:06:21;;;;;;;5.45;2.15;;;;;;;;;;4993858;28;20202;-70
2023/09/19 02:08:47;;;;;;;9.70;2.20;;;;;;;;;;4994548;28;20682;-69
2023/09/19 02:11:13;;;;;;;6.97;2.08;;;;;;;;;;4994264;28;20514;-70
2023/09/19 02:13:38;;;;;;;10.18;2.20;;;;;;;;;;4991893;28;20199;-70
2023/09/19 02:16:04;;;;;;;14.27;2.72;;;;;;;;;;4993804;28;20627;-70
2023/09/19 02:18:30;;;;;;;12.73;3.15;;;;;;;;;;4992246;28;20697;-69
2023/09/19 02:20:56;;;;;;;7.25;2.13;;;;;;;;;;4994258;28;20662;-69
2023/09/19 02:23:21;;;;;;;6.30;2.33;;;;;;;;;;4993578;28;20176;-69
2023/09/19 02:26:03;;;;;;;8.55;1.85;;;;;;;;;;4993798;28;20179;-69
2023/09/19 02:28:32;;;;;;;11.13;2.08;;;;;;;;;;4990901;28;20189;-68
2023/09/19 02:30:57;;;;;;;12.27;2.28;;;;;;;;;;4995446;28;20172;-69
2023/09/19 02:33:22;;;;;;;9.82;2.20;;;;;;;;;;4994756;28;20230;-69
2023/09/19 02:35:48;;;;;;;6.60;2.25;;;;;;;;;;4995182;28;20242;-69
2023/09/19 02:38:14;;;;;;;8.82;2.25;;;;;;;;;;4994908;28;20168;-68
2023/09/19 02:40:39;;;;;;;18.50;2.83;;;;;;;;;;4993127;28;20786;-69
2023/09/19 02:43:05;;;;;;;8.88;2.17;;;;;;;;;;4995305;28;20250;-69
2023/09/19 02:45:30;;;;;;;10.57;2.72;;;;;;;;;;5000088;28;20184;-69
2023/09/19 02:47:56;;;;;;;4.53;2.53;;;;;;;;;;5003985;28;20223;-69
2023/09/19 02:50:22;;;;;;;10.45;2.67;;;;;;;;;;5005898;28;20179;-70
2023/09/19 02:52:50;;;;;;;11.73;2.80;;;;;;;;;;4996680;28;20466;-69
2023/09/19 02:55:17;;;;;;;6.85;2.13;;;;;;;;;;4999252;28;20271;-68
2023/09/19 02:57:49;;;;;;;14.27;3.17;;;;;;;;;;4996291;28;20204;-69
2023/09/19 03:00:15;;;;;;;9.25;2.03;;;;;;;;;;4999776;28;20175;-69
2023/09/19 03:02:41;;;;;;;9.88;2.80;;;;;;;;;;4998112;28;20549;-69
2023/09/19 03:05:07;;;;;;;8.50;1.88;;;;;;;;;;5002299;28;20171;-70
2023/09/19 03:07:32;;;;;;;6.85;1.85;;;;;;;;;;4997658;28;20207;-69
2023/09/19 03:09:57;;;;;;;12.38;2.60;;;;;;;;;;4998833;28;20202;-69
2023/09/19 03:12:22;;;;;;;10.02;2.65;;;;;;;;;;4996756;28;20227;-69
2023/09/19 03:14:48;;;;;;;10.55;2.50;;;;;;;;;;5001981;28;20196;-69
2023/09/19 03:17:14;;;;;;;9.82;2.33;;;;;;;;;;4997576;28;20211;-70
2023/09/19 03:19:39;;;;;;;10.70;2.72;;;;;;;;;;4996873;28;20183;-70
2023/09/19 03:22:05;;;;;;;6.38;2.40;;;;;;;;;;4997292;28;20172;-71
2023/09/19 03:24:31;;;;;;;10.52;3.05;;;;;;;;;;4995191;28;20186;-69
2023/09/19 03:26:57;;;;;;;6.05;2.60;;;;;;;;;;5000322;28;20263;-70
2023/09/19 03:29:22;;;;;;;7.43;2.47;;;;;;;;;;5000206;28;20212;-70
2023/09/19 03:31:47;;;;;;;9.85;2.35;;;;;;;;;;4999688;28;20188;-69
2023/09/19 03:34:12;;;;;;;10.15;2.17;;;;;;;;;;4994572;28;20180;-69
2023/09/19 03:36:38;;;;;;;7.93;2.90;;;;;;;;;;4994403;28;20196;-69
2023/09/19 03:39:04;;;;;;;12.23;2.40;;;;;;;;;;4993591;28;20184;-70
2023/09/19 03:41:30;;;;;;;8.20;2.65;;;;;;;;;;4991402;28;20647;-70
2023/09/19 03:43:56;;;;;;;6.93;1.85;;;;;;;;;;4991820;28;20179;-70
2023/09/19 03:46:21;;;;;;;5.47;1.65;;;;;;;;;;4993419;28;20242;-70
2023/09/19 03:48:46;;;;;;;7.85;1.63;;;;;;;;;;4987193;28;20190;-70
2023/09/19 03:51:12;;;;;;;8.73;2.67;;;;;;;;;;4992340;28;20175;-70
2023/09/19 03:53:37;;;;;;;6.78;2.13;;;;;;;;;;4992129;28;20172;-70
2023/09/19 03:56:02;;;;;;;13.38;2.42;;;;;;;;;;4990940;28;20696;-69
2023/09/19 03:58:27;;;;;;;7.40;1.60;;;;;;;;;;5006742;28;20210;-69
2023/09/19 04:00:56;;;;;;;7.55;1.83;;;;;;;;;;4992345;28;20263;-69
2023/09/19 04:03:21;;;;;;;7.80;2.30;;;;;;;;;;4991563;28;20172;-68
2023/09/19 04:05:47;;;;;;;9.25;2.65;;;;;;;;;;4991284;28;20183;-69
2023/09/19 04:08:13;;;;;;;7.93;2.33;;;;;;;;;;4990784;28;20250;-70
2023/09/19 04:10:39;;;;;;;11.15;2.10;;;;;;;;;;4992229;28;20180;-69
2023/09/19 04:13:04;;;;;;;6.70;2.15;;;;;;;;;;4994395;28;20179;-69
2023/09/19 04:15:29;;;;;;;4.57;1.33;;;;;;;;;;4992239;28;20683;-69
2023/09/19 04:17:55;;;;;;;8.60;1.80;;;;;;;;;;4992168;28;20191;-69
2023/09/19 04:20:22;;;;;;;6.13;2.13;;;;;;;;;;4991216;28;20230;-69
2023/09/19 04:22:47;;;;;;;11.13;2.05;;;;;;;;;;4990732;28;20175;-69
2023/09/19 04:25:12;;;;;;;6.82;2.03;;;;;;;;;;4992513;28;20282;-69
2023/09/19 04:27:38;;;;;;;7.38;2.28;;;;;;;;;;4995333;28;20708;-69
2023/09/19 04:30:05;;;;;;;7.43;1.70;;;;;;;;;;4994295;28;20205;-69
2023/09/19 04:32:32;;;;;;;3.67;1.58;;;;;;;;;;4994860;28;20540;-68
2023/09/19 04:34:59;;;;;;;6.50;2.28;;;;;;;;;;4995867;28;20683;-70
2023/09/19 04:37:25;;;;;;;4.50;1.42;;;;;;;;;;4996881;28;20211;-69
2023/09/19 04:39:50;;;;;;;9.23;2.20;;;;;;;;;;4997502;28;20175;-69
2023/09/19 04:42:15;;;;;;;6.45;2.22;;;;;;;;;;4996313;28;20176;-69
2023/09/19 04:44:40;;;;;;;7.75;2.33;;;;;;;;;;4994807;28;20659;-69
2023/09/19 04:47:06;;;;;;;7.40;2.00;;;;;;;;;;4995152;28;20196;-69
2023/09/19 04:49:31;;;;;;;10.60;2.03;;;;;;;;;;4988565;28;20184;-69
2023/09/19 04:51:56;;;;;;;10.75;2.05;;;;;;;;;;4994839;28;20183;-70
2023/09/19 04:54:22;;;;;;;7.95;1.92;;;;;;;;;;4995317;28;20250;-69
2023/09/19 04:56:47;;;;;;;8.85;2.90;;;;;;;;;;4993397;28;20227;-69
2023/09/19 04:59:12;;;;;;;7.03;2.30;;;;;;;;;;4989745;28;20192;-69
2023/09/19 05:01:37;;;;;;;8.68;2.08;;;;;;;;;;4993455;28;20180;-69
2023/09/19 05:04:04;;;;;;;10.82;2.28;;;;;;;;;;4991064;28;20571;-70
2023/09/19 05:06:30;;;;;;;7.38;2.00;;;;;;;;;;4989801;28;20203;-69
2023/09/19 05:08:55;;;;;;;11.63;2.22;;;;;;;;;;4994323;28;20176;-70
2023/09/19 05:11:24;;;;;;;7.03;1.52;;;;;;;;;;4993887;28;20324;-70
2023/09/19 05:13:52;;;;;;;9.45;2.08;;;;;;;;;;4994860;28;20270;-70
2023/09/19 05:16:18;;;;;;;9.93;2.00;;;;;;;;;;4987674;28;20226;-69
2023/09/19 05:18:43;;;;;;;8.40;2.55;;;;;;;;;;4992298;28;20659;-71
2023/09/19 05:21:08;;;;;;;15.15;2.72;;;;;;;;;;4990013;28;20262;-69
2023/09/19 05:23:34;;;;;;;6.97;2.33;;;;;;;;;;4995209;28;20605;-69
2023/09/19 05:25:59;;;;;;;6.55;1.90;;;;;;;;;;5005921;28;20656;-69
2023/09/19 05:28:25;;;;;;;11.45;2.22;;;;;;;;;;4992830;28;20184;-69
2023/09/19 05:30:51;;;;;;;7.53;1.92;;;;;;;;;;4991819;28;20267;-69
2023/09/19 05:33:18;;;;;;;9.05;3.05;;;;;;;;;;4996181;28;20199;-69
2023/09/19 05:35:43;;;;;;;5.30;1.75;;;;;;;;;;4992814;28;20219;-69
2023/09/19 05:38:09;;;;;;;13.20;2.35;;;;;;;;;;4993897;28;20187;-69
2023/09/19 05:40:34;;;;;;;8.15;2.20;;;;;;;;;;4990908;28;20187;-68
2023/09/19 05:43:00;;;;;;;5.35;2.60;;;;;;;;;;4993470;28;20596;-70
2023/09/19 05:45:25;;;;;;;13.63;2.97;;;;;;;;;;4996282;28;20187;-70
2023/09/19 05:47:55;;;;;;;7.07;2.28;;;;;;;;;;4995183;28;20203;-70
2023/09/19 05:50:21;;;;;;;11.27;2.65;;;;;;;;;;4995642;28;20535;-68
2023/09/19 05:52:52;;;;;;;8.43;2.78;;;;;;;;;;4994907;28;20211;-69
2023/09/19 05:55:17;;;;;;;10.90;2.25;;;;;;;;;;4993141;28;20294;-69
2023/09/19 05:57:42;;;;;;;10.68;2.50;;;;;;;;;;4995987;28;20290;-69
2023/09/19 06:00:10;;;;;;;9.70;1.80;;;;;;;;;;4988152;28;20271;-69
2023/09/19 06:02:35;;;;;;;8.27;2.17;;;;;;;;;;4987893;28;20573;-68
2023/09/19 06:05:01;;;;;;;9.32;2.50;;;;;;;;;;4994127;28;20258;-69
2023/09/19 06:07:27;;;;;;;10.90;1.95;;;;;;;;;;5019351;23;20313;-64
2023/09/19 06:09:56;;;;;;;11.85;2.35;;;;;;;;;;4991652;28;20289;-64
2023/09/19 06:12:21;;;;;;;10.73;2.15;;;;;;;;;;5006133;28;20569;-64
2023/09/19 06:14:46;;;;;;;15.02;3.33;;;;;;;;;;5010478;28;20199;-65
2023/09/19 06:17:11;;;;;;;9.23;2.42;;;;;;;;;;5012238;28;20209;-65
2023/09/19 06:19:37;;;;;;;11.63;2.70;;;;;;;;;;5012232;28;20171;-65
2023/09/19 06:22:02;;;;;;;5.80;1.80;;;;;;;;;;5008868;28;20596;-65
2023/09/19 06:24:28;;;;;;;6.80;2.20;;;;;;;;;;5008216;28;20182;-65
2023/09/19 06:26:53;;;;;;;9.75;2.30;;;;;;;;;;5006208;28;20225;-64
2023/09/19 06:29:20;;;;;;;7.85;1.95;;;;;;;;;;5005420;28;20179;-65
2023/09/19 06:31:46;;;;;;;7.80;1.77;;;;;;;;;;5005913;28;20176;-64
2023/09/19 06:34:13;;;;;;;9.05;2.83;;;;;;;;;;5009417;28;20171;-64
2023/09/19 06:36:39;;;;;;;11.30;1.95;;;;;;;;;;5007060;28;20226;-65
2023/09/19 06:39:06;;;;;;;15.40;3.20;;;;;;;;;;5009433;28;20221;-65
2023/09/19 06:41:31;;;;;;;8.50;1.80;;;;;;;;;;5007055;28;20163;-64
2023/09/19 06:43:57;;;;;;;9.68;2.05;;;;;;;;;;5004517;28;20175;-64
2023/09/19 06:46:23;;;;;;;8.80;2.22;;;;;;;;;;5005512;28;20197;-64
2023/09/19 06:48:49;;;;;;;12.07;2.72;;;;;;;;;;5004205;28;20259;-66
2023/09/19 06:51:15;;;;;;;14.45;2.80;;;;;;;;;;5008336;28;20187;-66
2023/09/19 06:53:41;;;;;;;5.47;2.10;;;;;;;;;;5010281;28;20253;-66
2023/09/19 06:56:06;;;;;;;8.55;2.13;;;;;;;;;;5008368;28;20238;-65
2023/09/19 06:58:31;;;;;;;11.52;2.22;;;;;;;;;;5010104;28;20212;-65
2023/09/19 07:00:56;;;;;;;12.40;2.67;;;;;;;;;;5002940;28;20172;-65
2023/09/19 07:03:25;;;;;;;7.45;2.25;;;;;;;;;;5001443;28;20670;-65
2023/09/19 07:05:50;;;;;;;12.23;2.15;;;;;;;;;;5007577;28;20182;-65
2023/09/19 07:08:15;;;;;;;9.13;2.40;;;;;;;;;;5009080;28;20223;-64
2023/09/19 07:10:41;;;;;;;10.88;2.50;;;;;;;;;;5009715;28;20729;-65
2023/09/19 07:13:10;;;;;;;5.70;2.17;;;;;;;;;;5002464;28;20183;-66
2023/09/19 07:15:38;;;;;;;11.48;2.08;;;;;;;;;;5007971;28;20199;-66
2023/09/19 07:18:04;;;;;;;6.93;1.98;;;;;;;;;;5010606;28;20234;-66
2023/09/19 07:20:31;;;;;;;9.23;2.17;;;;;;;;;;5007522;28;20225;-66
2023/09/19 07:22:59;;;;;;;12.30;2.30;;;;;;;;;;5010618;28;20175;-65
2023/09/19 07:25:24;;;;;;;11.38;2.78;;;;;;;;;;5009779;28;20206;-66
2023/09/19 07:27:51;;;;;;;11.45;2.55;;;;;;;;;;5009469;28;20253;-65
2023/09/19 07:30:16;;;;;;;10.45;2.15;;;;;;;;;;5007529;28;20625;-66
2023/09/19 07:32:42;;;;;;;12.35;3.42;;;;;;;;;;5010861;28;20258;-65
2023/09/19 07:35:07;;;;;;;9.30;2.13;;;;;;;;;;5006826;28;20294;-65
2023/09/19 07:37:33;;;;;;;9.85;2.90;;;;;;;;;;5004984;28;20195;-66
2023/09/19 07:40:09;;;;;;;10.85;2.05;;;;;;;;;;5006416;28;20603;-65
2023/09/19 07:42:35;;;;;;;8.50;2.67;;;;;;;;;;5006360;28;20665;-67
2023/09/19 07:45:00;;;;;;;10.88;2.15;;;;;;;;;;4999617;28;20262;-66
2023/09/19 07:47:26;;;;;;;10.20;3.50;;;;;;;;;;5006720;28;20264;-67
2023/09/19 07:49:51;;;;;;;8.73;2.10;;;;;;;;;;5010393;28;20222;-67
2023/09/19 07:52:16;;;;;;;10.55;2.10;;;;;;;;;;5010374;28;20638;-65
2023/09/19 07:54:44;;;;;;;8.18;1.98;;;;;;;;;;5010960;28;20198;-66
2023/09/19 07:57:09;;;;;;;6.72;2.25;;;;;;;;;;5004194;28;20704;-66
2023/09/19 07:59:34;;;;;;;7.63;2.10;;;;;;;;;;5007607;28;20186;-65
2023/09/19 08:02:00;;;;;;;8.35;2.13;;;;;;;;;;5006587;28;20206;-66
2023/09/19 08:04:26;;;;;;;14.05;2.33;;;;;;;;;;5010684;28;20183;-66
2023/09/19 08:06:52;;;;;;;8.35;2.20;;;;;;;;;;5006570;28;20211;-66
2023/09/19 08:09:20;;;;;;;12.68;2.60;;;;;;;;;;5007561;28;20175;-66
2023/09/19 08:11:46;;;;;;;12.43;3.00;;;;;;;;;;5010582;28;20181;-66
2023/09/19 08:14:14;;;;;;;6.18;2.03;;;;;;;;;;5010121;28;20265;-66
2023/09/19 08:16:39;;;;;;;7.68;2.28;;;;;;;;;;5010125;28;20666;-66
2023/09/19 08:19:05;;;;;;;9.52;2.53;;;;;;;;;;5008808;28;20262;-66
2023/09/19 08:21:31;;;;;;;8.75;2.50;;;;;;;;;;5009468;28;20167;-66
2023/09/19 08:23:57;;;;;;;16.70;2.83;;;;;;;;;;5010410;28;20225;-66
2023/09/19 08:26:24;;;;;;;8.27;2.38;;;;;;;;;;5010789;28;20199;-66
2023/09/19 08:28:51;;;;;;;9.43;2.15;;;;;;;;;;5006144;28;20262;-66
2023/09/19 08:31:17;;;;;;;7.03;2.42;;;;;;;;;;4995873;28;20658;-66
2023/09/19 08:33:45;;;;;;;10.75;2.17;;;;;;;;;;5008439;28;20187;-66
2023/09/19 08:36:14;;;;;;;12.98;2.22;;;;;;;;;;5009024;28;20642;-66
2023/09/19 08:38:39;;;;;;;6.63;2.08;;;;;;;;;;5010337;28;20504;-66
2023/09/19 08:41:08;;;;;;;6.53;2.50;;;;;;;;;;5009878;28;20171;-66
2023/09/19 08:43:36;;;;;;;9.02;2.03;;;;;;;;;;5010195;28;20167;-66
2023/09/19 08:46:07;;;;;;;13.82;3.13;;;;;;;;;;5002824;28;20241;-66
2023/09/19 08:48:34;;;;;;;10.40;2.15;;;;;;;;;;5005288;28;20620;-66
2023/09/19 08:50:59;;;;;;;12.02;2.45;;;;;;;;;;5007000;28;20230;-66
2023/09/19 08:53:37;;;;;;;13.95;2.33;;;;;;;;;;5009666;28;20174;-67
2023/09/19 08:56:03;;;;;;;9.32;2.00;;;;;;;;;;5009555;28;20202;-66
2023/09/19 08:58:33;;;;;;;8.27;1.83;;;;;;;;;;5010065;28;20285;-67
2023/09/19 09:01:00;;;;;;;10.82;2.22;;;;;;;;;;5006930;28;20313;-66
2023/09/19 09:03:25;;;;;;;9.90;2.33;;;;;;;;;;5006406;28;20233;-67
2023/09/19 09:05:51;;;;;;;9.60;2.60;;;;;;;;;;5008694;28;20270;-67
2023/09/19 09:08:17;;;;;;;13.68;2.80;;;;;;;;;;5009795;28;20217;-66
2023/09/19 09:10:44;;;;;;;13.88;2.45;;;;;;;;;;5008706;28;20237;-66
2023/09/19 09:13:09;;;;;;;9.07;1.98;;;;;;;;;;5009788;28;20607;-67
2023/09/19 09:15:35;;;;;;;11.95;2.15;;;;;;;;;;5012938;28;20198;-65
2023/09/19 09:18:02;;;;;;;6.47;2.30;;;;;;;;;;5013404;28;20331;-65
2023/09/19 09:20:27;;;;;;;9.75;2.50;;;;;;;;;;5012400;28;20179;-65
2023/09/19 09:23:00;;;;;;;7.28;2.15;;;;;;;;;;5013178;28;20185;-64
2023/09/19 09:25:45;;;;;;;11.07;1.92;;;;;;;;;;5012081;28;20171;-66
2023/09/19 09:28:11;;;;;;;11.07;2.05;;;;;;;;;;5010904;28;20203;-66
2023/09/19 09:30:37;;;;;;;13.05;2.30;;;;;;;;;;5007517;28;20194;-66
2023/09/19 09:33:10;;;;;;;15.38;2.45;;;;;;;;;;4999989;28;20183;-66
2023/09/19 09:35:36;;;;;;;13.68;2.05;;;;;;;;;;5013693;28;20694;-66
2023/09/19 09:38:06;;;;;;;11.45;2.60;;;;;;;;;;5008804;28;20226;-67
2023/09/19 09:40:45;;;;;;;8.13;1.85;;;;;;;;;;5007422;28;20182;-65
2023/09/19 09:43:25;;;;;;;12.73;2.10;;;;;;;;;;5012651;28;20237;-65
2023/09/19 09:46:10;;;;;;;10.15;2.60;;;;;;;;;;5010588;28;20175;-65
2023/09/19 09:48:38;;;;;;;10.68;1.65;;;;;;;;;;5011833;28;20170;-66
2023/09/19 09:51:07;;;;;;;11.30;2.45;;;;;;;;;;5004674;28;20666;-66
2023/09/19 09:53:33;;;;;;;4.97;1.52;;;;;;;;;;5005022;28;20183;-66
2023/09/19 09:56:02;;;;;;;7.30;1.80;;;;;;;;;;5009876;28;20198;-66
2023/09/19 09:58:31;;;;;;;9.60;1.92;;;;;;;;;;5007554;28;20654;-66
2023/09/19 10:01:01;;;;;;;7.68;1.55;;;;;;;;;;5006831;28;20179;-66
2023/09/19 10:03:48;;;;;;;12.35;2.05;;;;;;;;;;5009572;28;20725;-66
2023/09/19 10:11:37;;;;;;;5.47;1.75;;;;;;;;;;5012158;28;20262;-66
2023/09/19 10:14:06;;;;;;;9.45;1.88;;;;;;;;;;5011485;28;20269;-65
2023/09/19 10:16:32;;;;;;;9.07;1.88;;;;;;;;;;5007273;28;20305;-65
2023/09/19 10:18:59;;;;;;;6.90;1.80;;;;;;;;;;5002564;28;20633;-65
2023/09/19 10:21:24;;;;;;;7.35;1.80;;;;;;;;;;5003875;28;20222;-64
2023/09/19 10:23:52;;;;;;;5.07;1.58;;;;;;;;;;5005524;28;20512;-65
2023/09/19 10:26:17;;;;;;;7.90;2.13;;;;;;;;;;5003774;28;20597;-67
2023/09/19 10:28:44;;;;;;;6.68;1.88;;;;;;;;;;5004826;28;20186;-67
2023/09/19 10:31:14;;;;;;;11.55;1.85;;;;;;;;;;5009116;28;20186;-66
2023/09/19 10:33:41;;;;;;;3.65;1.45;;;;;;;;;;5011266;28;20225;-65
2023/09/19 10:36:06;;;;;;;4.80;1.15;;;;;;;;;;5005879;28;20203;-66
2023/09/19 10:38:33;;;;;;;3.95;1.30;;;;;;;;;;5019764;28;20560;-66
2023/09/19 10:40:59;;;;;;;5.07;1.50;;;;;;;;;;5005259;28;20176;-65
2023/09/19 10:43:35;;;;;;;8.02;1.75;;;;;;;;;;5008654;28;20186;-66
2023/09/19 10:46:05;;;;;;;3.70;0.90;;;;;;;;;;5010030;28;20633;-66
2023/09/19 10:48:31;;;;;;;6.32;1.27;;;;;;;;;;5006300;28;20229;-65
2023/09/19 10:51:28;;;;;;;5.35;1.63;;;;;;;;;;5010859;28;20187;-65
2023/09/19 10:54:03;;;;;;;8.63;1.88;;;;;;;;;;4999304;28;20187;-65
2023/09/19 10:56:38;;;;;;;9.50;1.50;;;;;;;;;;5010156;28;20753;-65
2023/09/19 10:59:07;;;;;;;8.55;2.33;;;;;;;;;;5010418;28;20181;-64
2023/09/19 11:01:44;;;;;;;7.18;1.63;;;;;;;;;;5008662;28;20254;-65
2023/09/19 11:04:31;;;;;;;4.38;1.60;;;;;;;;;;5009516;28;20558;-66
2023/09/19 11:07:16;;;;;;;3.53;1.58;;;;;;;;;;5010317;28;20215;-66
2023/09/19 11:09:47;;;;;;;4.30;1.20;;;;;;;;;;5007904;28;20191;-66
2023/09/19 11:12:40;;;;;;;2.70;0.98;;;;;;;;;;5009572;28;20245;-66
2023/09/19 11:15:10;;;;;;;6.25;1.42;;;;;;;;;;5006270;28;20222;-66
2023/09/19 11:17:42;;;;;;;5.20;0.93;;;;;;;;;;5010776;28;20689;-66
2023/09/19 11:22:51;;;;;;;4.97;1.13;;;;;;;;;;5011720;28;20203;-65
2023/09/19 11:25:41;;;;;;;4.90;1.30;;;;;;;;;;5011081;28;20185;-66
2023/09/19 11:28:15;;;;;;;4.65;0.80;;;;;;;;;;5007582;28;20203;-66
2023/09/19 11:30:43;;;;;;;5.70;1.33;;;;;;;;;;5011324;28;20182;-67
2023/09/19 11:33:21;;;;;;;4.97;0.80;;;;;;;;;;5010529;28;20206;-65
2023/09/19 11:36:02;;;;;;;3.72;1.38;;;;;;;;;;5010810;28;20253;-65
2023/09/19 11:38:47;;;;;;;6.18;1.15;;;;;;;;;;5009691;28;20166;-66
2023/09/19 11:41:31;;;;;;;4.97;0.90;;;;;;;;;;5009355;28;20287;-66
2023/09/19 11:44:00;;;;;;;3.42;0.95;;;;;;;;;;5010192;28;20177;-65
2023/09/19 11:46:26;;;;;;;3.60;1.25;;;;;;;;;;4997637;28;20713;-65
2023/09/19 11:48:52;;;;;;;7.43;1.17;;;;;;;;;;5007880;28;20186;-65
2023/09/19 11:51:27;;;;;;;3.75;0.90;;;;;;;;;;5009276;28;20189;-65
2023/09/19 11:53:53;;;;;;;2.53;0.90;;;;;;;;;;5010725;28;20189;-66
2023/09/19 11:56:21;;;;;;;5.93;0.90;;;;;;;;;;5008940;28;20756;-65
2023/09/19 11:58:49;;;;;;;4.13;0.88;;;;;;;;;;5010262;28;20265;-66
2023/09/19 12:01:19;;;;;;;3.03;0.77;;;;;;;;;;5008878;28;20262;-66
2023/09/19 12:03:47;;;;;;;4.95;0.88;;;;;;;;;;5008135;28;20589;-66
2023/09/19 12:08:48;;;;;;;6.57;1.20;;;;;;;;;;5029476;28;20300;-69
2023/09/19 12:11:15;;;;;;;2.85;1.08;;;;;;;;;;5032144;28;20178;-69
2023/09/19 12:13:46;;;;;;;7.38;1.73;;;;;;;;;;5031731;28;20174;-69
2023/09/19 12:16:21;;;;;;;5.22;1.25;;;;;;;;;;5032643;28;20201;-69
2023/09/19 12:18:47;;;;;;;4.10;1.17;;;;;;;;;;5013430;28;20174;-69
2023/09/19 12:21:31;;;;;;;4.95;1.10;;;;;;;;;;5010413;28;20187;-69
2023/09/19 12:24:04;;;;;;;2.50;0.80;;;;;;;;;;5011889;28;20187;-69
2023/09/19 12:26:30;;;;;;;3.88;1.15;;;;;;;;;;5028039;28;20175;-68
2023/09/19 12:28:57;;;;;;;6.20;1.25;;;;;;;;;;5012862;28;20183;-69
2023/09/19 12:31:22;;;;;;;3.58;0.80;;;;;;;;;;5020081;28;20262;-69
2023/09/19 12:33:53;;;;;;;5.05;0.85;;;;;;;;;;5019094;28;20206;-68
2023/09/19 12:36:31;;;;;;;3.20;1.10;;;;;;;;;;5020414;28;20344;-69
2023/09/19 12:39:00;;;;;;;8.90;1.40;;;;;;;;;;5020020;28;20171;-69
2023/09/19 12:41:28;;;;;;;2.40;0.93;;;;;;;;;;5019772;28;20171;-69
2023/09/19 12:43:54;;;;;;;3.88;1.00;;;;;;;;;;5016196;28;20233;-69
2023/09/19 12:46:25;;;;;;;5.22;1.30;;;;;;;;;;5015767;28;20191;-69
2023/09/19 12:49:12;;;;;;;5.90;1.85;;;;;;;;;;5015333;28;20214;-69
2023/09/19 12:51:37;;;;;;;2.65;0.75;;;;;;;;;;5027494;28;20186;-70
2023/09/19 12:54:02;;;;;;;11.07;1.85;;;;;;;;;;5017969;28;20678;-69
2023/09/19 12:56:29;;;;;;;4.20;1.10;;;;;;;;;;5018690;28;20209;-71
2023/09/19 12:58:55;;;;;;;3.30;1.42;;;;;;;;;;5012911;28;20174;-69
2023/09/19 13:01:22;;;;;;;3.42;1.05;;;;;;;;;;5017266;28;20178;-70
2023/09/19 13:04:07;;;;;;;3.28;0.82;;;;;;;;;;5016508;28;20554;-70
2023/09/19 13:06:40;;;;;;;3.55;1.65;;;;;;;;;;5014692;28;20242;-69
2023/09/19 13:09:09;;;;;;;5.05;0.90;;;;;;;;;;5015904;28;20190;-69
2023/09/19 13:11:43;;;;;;;6.57;1.15;;;;;;;;;;5013940;28;20186;-70
2023/09/19 13:14:14;;;;;;;3.45;0.82;;;;;;;;;;5011150;28;20178;-70
2023/09/19 13:16:58;;;;;;;8.30;1.42;;;;;;;;;;5010995;28;20207;-70
2023/09/19 13:19:52;;;;;;;5.53;1.27;;;;;;;;;;5014650;28;20266;-70
2023/09/19 13:22:38;;;;;;;5.03;1.15;;;;;;;;;;5006846;28;20187;-69
2023/09/19 13:25:04;;;;;;;4.70;0.90;;;;;;;;;;5015963;28;20607;-70
2023/09/19 13:27:29;;;;;;;3.90;1.00;;;;;;;;;;5015276;28;20210;-70
2023/09/19 13:29:54;;;;;;;2.38;0.95;;;;;;;;;;5011418;28;20179;-69
2023/09/19 13:32:19;;;;;;;4.73;0.93;;;;;;;;;;5011272;28;20198;-69
2023/09/19 13:34:44;;;;;;;4.78;1.30;;;;;;;;;;5010079;28;20531;-69
2023/09/19 13:37:10;;;;;;;5.18;1.20;;;;;;;;;;5013834;28;20618;-69
2023/09/19 13:39:36;;;;;;;3.75;1.50;;;;;;;;;;5014600;28;20183;-69
2023/09/19 13:42:02;;;;;;;2.50;0.90;;;;;;;;;;5013442;28;20167;-69
2023/09/19 13:44:30;;;;;;;6.13;1.02;;;;;;;;;;5014348;28;20179;-69
2023/09/19 13:46:55;;;;;;;4.80;1.00;;;;;;;;;;5013293;28;20203;-69
2023/09/19 13:49:21;;;;;;;2.83;0.98;;;;;;;;;;5014951;28;20525;-69
2023/09/19 13:51:46;;;;;;;4.32;1.63;;;;;;;;;;5012539;28;20529;-70
2023/09/19 13:54:12;;;;;;;6.50;1.10;;;;;;;;;;5011849;28;20198;-70
2023/09/19 13:56:38;;;;;;;5.10;1.30;;;;;;;;;;5013620;28;20209;-70
2023/09/19 13:59:03;;;;;;;6.70;1.02;;;;;;;;;;5013563;28;20733;-70
2023/09/19 14:01:28;;;;;;;3.28;1.00;;;;;;;;;;5014246;28;20179;-70
2023/09/19 14:03:56;;;;;;;1.98;0.88;;;;;;;;;;5012499;28;20535;-70
2023/09/19 14:06:22;;;;;;;3.20;1.17;;;;;;;;;;5010701;28;20215;-70
2023/09/19 14:08:47;;;;;;;4.28;1.40;;;;;;;;;;5013650;28;20696;-70
2023/09/19 14:11:14;;;;;;;3.10;1.08;;;;;;;;;;5013153;28;20745;-70
2023/09/19 14:13:39;;;;;;;2.63;1.40;;;;;;;;;;5012777;28;20375;-70
2023/09/19 14:16:05;;;;;;;3.63;2.03;;;;;;;;;;5013903;28;20317;-70
2023/09/19 14:18:31;;;;;;;4.78;1.30;;;;;;;;;;5012498;28;20250;-70
2023/09/19 14:20:56;;;;;;;3.67;1.30;;;;;;;;;;5013611;28;20195;-70
2023/09/19 14:23:23;;;;;;;5.95;1.15;;;;;;;;;;5013204;28;20241;-70
2023/09/19 14:25:48;;;;;;;4.88;1.42;;;;;;;;;;5013571;28;20263;-70
2023/09/19 14:28:13;;;;;;;3.60;1.40;;;;;;;;;;5011065;28;20298;-69
2023/09/19 14:30:38;;;;;;;4.10;1.63;;;;;;;;;;5013292;28;20622;-70
2023/09/19 14:33:04;;;;;;;7.35;1.67;;;;;;;;;;5004161;28;21083;-70
2023/09/19 14:35:30;;;;;;;3.30;1.60;;;;;;;;;;5007709;28;20221;-70
2023/09/19 14:37:55;;;;;;;5.80;1.85;;;;;;;;;;5010451;28;20195;-69
2023/09/19 14:40:22;;;;;;;7.07;1.40;;;;;;;;;;5008662;28;20309;-69
2023/09/19 14:42:48;;;;;;;8.85;2.22;;;;;;;;;;5012317;28;20203;-69
2023/09/19 14:45:16;;;;;;;5.70;1.65;;;;;;;;;;5011329;28;20187;-69
2023/09/19 14:47:41;;;;;;;6.35;1.90;;;;;;;;;;5010238;28;20683;-69
2023/09/19 14:50:07;;;;;;;5.00;1.30;;;;;;;;;;5011302;28;20191;-69
2023/09/19 14:52:33;;;;;;;5.82;2.03;;;;;;;;;;5011232;28;20175;-70
2023/09/19 14:54:58;;;;;;;2.67;0.90;;;;;;;;;;5011238;28;20207;-69
2023/09/19 14:57:24;;;;;;;7.78;1.83;;;;;;;;;;5012154;28;20681;-69